Terminal Aerodrome Forecast
Issued by NWS Northern Indiana

Home | Current Version | Previous Version | Text Only | Print | Product List | Glossary On
Versions: 1 2 3 4 5 6 7 8 9 10 11 12 13 14 15
677
FTUS43 KIWX 280526
TAFFWA
TAF
KFWA 280526Z 2806/0106 13007KT 6SM BR VCSH BKN100
     FM280900 14006KT 5SM -SHRA OVC070
      TEMPO 2809/2813 3SM TSRA OVC015CB
     FM281300 18010KT P6SM OVC015
     FM282200 18014G22KT P6SM VCSH OVC010
      TEMPO 2823/0103 3SM SHRA OVC008
     FM010300 21017G26KT 5SM SHRA OVC035
     FM010500 21019G30KT 4SM TSRA OVC020CB=

USA.gov is the U.S. government's official web portal to all federal, state and local government web resources and services.